Time;durP1;ratioP1;P1;durP2;ratioP2;P2;SDS_P1;SDS_P2;PMS_P1;PMS_P2;Temp;Humidity;BMP_temperature;BMP_pressure;BME280_temperature;BME280_humidity;BME280_pressure;Samples;Min_cycle;Max_cycle;Signal;HPM_P1;HPM_P2
2022/08/02 00:02:22;;;;;;;969.40;889.85;;;21.90;99.90;;;;;;4993231;28;20223;-83
2022/08/02 00:04:49;;;;;;;960.83;881.30;;;21.90;99.90;;;;;;4991769;28;20478;-80
2022/08/02 00:07:16;;;;;;;970.22;890.65;;;21.80;99.90;;;;;;4994282;28;20687;-80
2022/08/02 00:09:44;;;;;;;965.35;885.67;;;21.80;99.90;;;;;;4993730;28;20201;-81
2022/08/02 00:12:11;;;;;;;979.53;899.63;;;21.80;99.90;;;;;;4976913;28;20206;-80
2022/08/02 00:14:38;;;;;;;975.78;895.75;;;21.80;99.90;;;;;;4990801;28;20201;-82
2022/08/02 00:17:05;;;;;;;966.15;885.22;;;21.80;99.90;;;;;;5001519;28;20205;-81
2022/08/02 00:19:32;;;;;;;965.90;884.60;;;21.70;99.90;;;;;;4990506;28;20223;-82
2022/08/02 00:21:59;;;;;;;963.30;882.53;;;21.70;99.90;;;;;;4993929;28;20193;-82
2022/08/02 00:24:25;;;;;;;948.45;868.33;;;21.70;99.90;;;;;;4993128;28;20688;-81
2022/08/02 00:26:53;;;;;;;960.38;879.35;;;21.70;99.90;;;;;;4992080;28;20234;-81
2022/08/02 00:29:20;;;;;;;963.05;882.47;;;21.70;99.90;;;;;;4992092;28;20201;-81
2022/08/02 00:31:47;;;;;;;970.58;889.42;;;21.60;99.90;;;;;;4993833;28;20197;-81
2022/08/02 00:34:14;;;;;;;956.03;875.53;;;21.60;99.90;;;;;;4987105;28;20216;-81
2022/08/02 00:36:41;;;;;;;953.65;873.47;;;21.60;99.90;;;;;;4992475;28;20214;-81
2022/08/02 00:39:07;;;;;;;954.92;874.70;;;21.60;99.90;;;;;;5000018;28;20571;-81
2022/08/02 00:41:45;;;;;;;953.08;873.35;;;21.60;99.90;;;;;;4995694;28;20201;-81
2022/08/02 00:44:14;;;;;;;947.15;867.50;;;21.60;99.90;;;;;;4986032;28;20208;-81
2022/08/02 00:46:40;;;;;;;954.35;873.90;;;21.50;99.90;;;;;;4989445;28;20215;-81
2022/08/02 00:49:07;;;;;;;965.20;884.63;;;21.50;99.90;;;;;;4990931;28;20200;-80
2022/08/02 00:51:34;;;;;;;948.08;868.45;;;21.50;99.90;;;;;;4984896;28;20197;-83
2022/08/02 00:54:01;;;;;;;955.33;875.35;;;21.50;99.90;;;;;;4991498;28;20211;-81
2022/08/02 00:56:28;;;;;;;951.28;871.40;;;21.50;99.90;;;;;;4993633;28;20201;-81
2022/08/02 00:58:54;;;;;;;961.92;881.80;;;21.50;99.90;;;;;;4979948;28;20210;-81
2022/08/02 01:01:37;;;;;;;954.92;875.03;;;21.40;99.90;;;;;;4987272;28;20225;-80
2022/08/02 01:04:04;;;;;;;951.22;871.33;;;21.40;99.90;;;;;;4985519;28;20271;-80
2022/08/02 01:06:32;;;;;;;955.08;875.13;;;21.40;99.90;;;;;;4995403;28;20211;-81
2022/08/02 01:08:59;;;;;;;932.92;853.58;;;21.40;99.90;;;;;;4993924;28;20719;-82
2022/08/02 01:11:26;;;;;;;957.10;876.67;;;21.30;99.90;;;;;;4983814;28;20200;-82
2022/08/02 01:13:53;;;;;;;960.00;879.72;;;21.30;99.90;;;;;;4990633;28;20392;-81
2022/08/02 01:16:24;;;;;;;945.75;865.88;;;21.30;99.90;;;;;;4988993;28;20664;-82
2022/08/02 01:18:57;;;;;;;965.80;884.75;;;21.30;99.90;;;;;;4982709;28;20209;-80
2022/08/02 01:21:35;;;;;;;942.25;862.47;;;21.30;99.90;;;;;;4991838;28;20276;-81
2022/08/02 01:24:19;;;;;;;945.90;865.88;;;21.30;99.90;;;;;;4992697;28;20678;-80
2022/08/02 01:26:50;;;;;;;922.90;843.60;;;21.30;99.90;;;;;;4991280;28;20227;-83
2022/08/02 01:29:25;;;;;;;944.38;864.40;;;21.30;99.90;;;;;;4992884;28;20437;-81
2022/08/02 01:31:59;;;;;;;952.80;872.40;;;21.20;99.90;;;;;;4986444;28;20211;-82
2022/08/02 01:34:33;;;;;;;937.95;857.92;;;21.20;99.90;;;;;;4990514;28;20698;-81
2022/08/02 01:37:07;;;;;;;958.03;877.33;;;21.20;99.90;;;;;;4989370;28;20218;-81
2022/08/02 01:39:36;;;;;;;935.50;855.50;;;21.20;99.90;;;;;;4990998;28;20580;-83
2022/08/02 01:42:04;;;;;;;939.13;858.97;;;21.20;99.90;;;;;;4989744;28;20216;-81
2022/08/02 01:44:35;;;;;;;943.55;863.22;;;21.10;99.90;;;;;;4988429;28;20564;-82
2022/08/02 01:47:05;;;;;;;928.33;848.42;;;21.10;99.90;;;;;;4988825;28;20197;-82
2022/08/02 01:49:35;;;;;;;929.30;849.33;;;21.10;99.90;;;;;;4992136;28;20682;-82
2022/08/02 01:54:57;;;;;;;931.40;851.30;;;21.10;99.90;;;;;;4974551;28;20193;-81
2022/08/02 01:57:26;;;;;;;940.95;860.38;;;21.00;99.90;;;;;;4994321;28;20194;-81
2022/08/02 01:59:56;;;;;;;925.75;845.72;;;21.00;99.90;;;;;;4993839;28;20215;-82
2022/08/02 02:02:24;;;;;;;943.42;862.85;;;21.00;99.90;;;;;;4987313;28;20224;-82
2022/08/02 02:04:53;;;;;;;931.97;851.50;;;21.00;99.90;;;;;;4994553;28;20208;-81
2022/08/02 02:07:21;;;;;;;913.45;833.63;;;21.00;99.90;;;;;;4998362;28;20597;-81
2022/08/02 02:09:49;;;;;;;930.65;849.92;;;21.00;99.90;;;;;;4997335;28;20197;-81
2022/08/02 02:12:18;;;;;;;928.63;847.33;;;21.00;99.90;;;;;;4985570;28;20192;-81
2022/08/02 02:14:45;;;;;;;941.22;858.03;;;20.90;99.90;;;;;;5001432;28;20196;-81
2022/08/02 02:17:15;;;;;;;927.00;842.13;;;20.90;99.90;;;;;;4990487;28;20200;-81
2022/08/02 02:19:43;;;;;;;918.20;833.20;;;20.90;99.90;;;;;;4983089;28;20197;-82
2022/08/02 02:22:10;;;;;;;915.53;830.47;;;20.90;99.90;;;;;;4990427;28;20200;-82
2022/08/02 02:24:37;;;;;;;919.78;834.33;;;20.90;99.90;;;;;;4994461;28;20223;-81
2022/08/02 02:27:07;;;;;;;920.80;835.55;;;20.80;99.90;;;;;;4986040;28;20213;-81
2022/08/02 02:29:34;;;;;;;925.03;839.58;;;20.80;99.90;;;;;;5008138;28;20675;-81
2022/08/02 02:32:02;;;;;;;918.47;833.03;;;20.80;99.90;;;;;;4989587;28;20201;-81
2022/08/02 02:34:36;;;;;;;925.95;840.20;;;20.80;99.90;;;;;;4983530;28;20197;-81
2022/08/02 02:37:06;;;;;;;920.55;835.35;;;20.80;99.90;;;;;;4981553;28;20224;-82
2022/08/02 02:39:34;;;;;;;919.47;834.33;;;20.80;99.90;;;;;;4992901;28;20193;-84
2022/08/02 02:42:07;;;;;;;912.10;827.10;;;20.80;99.90;;;;;;4983616;28;20576;-85
2022/08/02 02:44:36;;;;;;;909.15;823.97;;;20.70;99.90;;;;;;4999042;28;20204;-84
2022/08/02 02:47:03;;;;;;;910.08;825.13;;;20.70;99.90;;;;;;4984576;28;20201;-85
2022/08/02 02:49:34;;;;;;;925.88;840.33;;;20.70;99.90;;;;;;4990874;28;20306;-85
2022/08/02 02:52:02;;;;;;;898.33;813.75;;;20.70;99.90;;;;;;5012597;28;20211;-84
2022/08/02 02:54:30;;;;;;;919.30;834.35;;;20.70;99.90;;;;;;4991438;28;20197;-83
2022/08/02 02:56:58;;;;;;;918.22;833.17;;;20.60;99.90;;;;;;5002577;28;20219;-84
2022/08/02 02:59:26;;;;;;;910.92;826.30;;;20.60;99.90;;;;;;4988927;28;20248;-84
2022/08/02 03:01:54;;;;;;;906.60;821.47;;;20.60;99.90;;;;;;4998910;28;20700;-84
2022/08/02 03:04:22;;;;;;;930.75;846.15;;;20.60;99.90;;;;;;4987290;28;20210;-83
2022/08/02 03:06:50;;;;;;;911.63;826.45;;;20.60;99.90;;;;;;4999059;28;20235;-84
2022/08/02 03:09:17;;;;;;;911.05;825.75;;;20.60;99.90;;;;;;4989424;28;20217;-83
2022/08/02 03:11:44;;;;;;;910.72;825.53;;;20.50;99.90;;;;;;5004527;28;20226;-84
2022/08/02 03:14:11;;;;;;;904.08;819.15;;;20.50;99.90;;;;;;4997305;28;20209;-83
2022/08/02 03:16:46;;;;;;;905.05;820.05;;;20.50;99.90;;;;;;5005694;28;20279;-83
2022/08/02 03:19:13;;;;;;;894.42;809.65;;;20.50;99.90;;;;;;4993001;28;20647;-82
2022/08/02 03:21:41;;;;;;;897.40;812.67;;;20.50;99.90;;;;;;4994716;28;20208;-83
2022/08/02 03:24:09;;;;;;;895.20;810.45;;;20.40;99.90;;;;;;5002719;28;20671;-83
2022/08/02 03:26:36;;;;;;;903.92;818.88;;;20.40;99.90;;;;;;4994068;28;20202;-84
2022/08/02 03:29:04;;;;;;;894.88;810.17;;;20.40;99.90;;;;;;5001815;28;20209;-84
2022/08/02 03:31:31;;;;;;;885.60;801.03;;;20.40;99.90;;;;;;5004837;28;20204;-83
2022/08/02 03:34:00;;;;;;;893.67;809.10;;;20.40;99.90;;;;;;4992531;28;20216;-84
2022/08/02 03:36:31;;;;;;;917.38;832.22;;;20.40;99.90;;;;;;4995450;28;20204;-84
2022/08/02 03:38:59;;;;;;;901.00;816.45;;;20.40;99.90;;;;;;4994520;28;20216;-84
2022/08/02 03:41:29;;;;;;;891.10;806.53;;;20.40;99.90;;;;;;5008589;28;20203;-85
2022/08/02 03:43:57;;;;;;;901.40;816.50;;;20.30;99.90;;;;;;4994742;28;20232;-84
2022/08/02 03:46:24;;;;;;;905.40;821.72;;;20.30;99.90;;;;;;4995490;28;20202;-85
2022/08/02 03:48:52;;;;;;;898.90;814.00;;;20.30;99.90;;;;;;4994251;28;20233;-85
2022/08/02 03:51:20;;;;;;;907.85;822.83;;;20.30;99.90;;;;;;5000583;28;20192;-85
2022/08/02 03:53:48;;;;;;;901.75;817.33;;;20.30;99.90;;;;;;4993812;28;20214;-85
2022/08/02 03:56:16;;;;;;;900.95;816.08;;;20.30;99.90;;;;;;4987733;28;20208;-85
2022/08/02 03:58:44;;;;;;;895.88;811.42;;;20.30;99.90;;;;;;4980769;28;20715;-85
2022/08/02 04:01:11;;;;;;;894.05;811.60;;;20.20;99.90;;;;;;4995646;28;20225;-85
2022/08/02 04:03:38;;;;;;;894.25;811.42;;;20.20;99.90;;;;;;4988188;28;20269;-84
2022/08/02 04:06:05;;;;;;;881.55;799.72;;;20.20;99.90;;;;;;5010432;28;20212;-84
2022/08/02 04:08:32;;;;;;;879.90;797.80;;;20.20;99.90;;;;;;4992236;28;20222;-84
2022/08/02 04:13:44;;;;;;;899.28;816.15;;;20.20;99.90;;;;;;4992215;28;20203;-84
2022/08/02 04:16:16;;;;;;;884.88;801.63;;;20.20;99.90;;;;;;4994519;28;20203;-84
2022/08/02 04:18:49;;;;;;;890.42;806.95;;;20.10;99.90;;;;;;4989804;28;20211;-83
2022/08/02 04:21:19;;;;;;;884.97;801.38;;;20.10;99.90;;;;;;4997741;28;20655;-83
2022/08/02 04:23:47;;;;;;;897.72;813.65;;;20.10;99.90;;;;;;4992215;28;20201;-84
2022/08/02 04:26:14;;;;;;;871.00;787.40;;;20.10;99.90;;;;;;4987898;28;20196;-89
2022/08/02 04:28:42;;;;;;;878.70;795.22;;;20.10;99.90;;;;;;4992569;28;20223;-89
2022/08/02 04:31:11;;;;;;;862.75;779.40;;;20.10;99.90;;;;;;4993837;28;20197;-89
2022/08/02 04:33:38;;;;;;;894.53;810.03;;;20.10;99.90;;;;;;4989507;28;20572;-89
2022/08/02 04:36:06;;;;;;;873.97;790.10;;;20.10;99.90;;;;;;4986945;28;20200;-87
2022/08/02 04:38:33;;;;;;;885.42;801.25;;;20.10;99.90;;;;;;4994307;28;20216;-87
2022/08/02 04:41:00;;;;;;;869.45;785.40;;;20.10;99.90;;;;;;4995129;28;20223;-86
2022/08/02 04:43:26;;;;;;;883.35;799.08;;;20.00;99.90;;;;;;4990624;28;20208;-87
2022/08/02 04:45:54;;;;;;;872.95;789.13;;;20.00;99.90;;;;;;5008422;28;20212;-88
2022/08/02 04:48:23;;;;;;;889.17;804.83;;;20.00;99.90;;;;;;4987776;28;20236;-89
2022/08/02 04:50:50;;;;;;;898.15;813.38;;;20.00;99.90;;;;;;4994519;28;20212;-87
2022/08/02 04:53:17;;;;;;;868.08;784.28;;;20.00;99.90;;;;;;4987331;28;20201;-87
2022/08/02 04:55:44;;;;;;;875.42;791.15;;;20.00;99.90;;;;;;4976282;28;20204;-88
2022/08/02 04:58:11;;;;;;;881.60;797.55;;;20.00;99.90;;;;;;4994041;28;20207;-89
2022/08/02 05:00:38;;;;;;;876.25;792.05;;;20.00;99.90;;;;;;4990311;28;20208;-87
2022/08/02 05:03:04;;;;;;;893.10;808.30;;;20.00;99.90;;;;;;4990481;28;20250;-88
2022/08/02 05:05:33;;;;;;;871.97;788.03;;;20.00;99.90;;;;;;5000702;28;20199;-88
2022/08/02 05:07:59;;;;;;;885.63;801.28;;;20.00;99.90;;;;;;4999830;28;20213;-87
2022/08/02 05:10:26;;;;;;;870.45;785.97;;;20.10;99.90;;;;;;4999828;28;20195;-87
2022/08/02 05:12:53;;;;;;;884.53;800.13;;;20.00;99.90;;;;;;4991098;28;20210;-87
2022/08/02 05:15:20;;;;;;;875.80;791.60;;;20.10;99.90;;;;;;4990273;28;20208;-86
2022/08/02 05:17:48;;;;;;;885.20;800.83;;;20.10;99.90;;;;;;4993105;28;20197;-88
2022/08/02 05:20:16;;;;;;;866.20;782.40;;;20.00;99.90;;;;;;4980536;28;20660;-88
2022/08/02 05:22:44;;;;;;;888.03;803.72;;;20.10;99.90;;;;;;4991064;28;20207;-88
2022/08/02 05:25:11;;;;;;;873.40;789.60;;;20.10;99.90;;;;;;4992117;28;20198;-88
2022/08/02 05:27:38;;;;;;;869.78;786.50;;;20.10;99.90;;;;;;4990526;28;20201;-89
2022/08/02 05:30:06;;;;;;;877.20;793.72;;;20.10;99.90;;;;;;4993922;28;20218;-87
2022/08/02 05:32:33;;;;;;;892.35;809.85;;;20.10;99.90;;;;;;4992598;28;20329;-88
2022/08/02 05:35:00;;;;;;;869.28;786.50;;;20.10;99.90;;;;;;4982823;28;20201;-88
2022/08/02 05:37:27;;;;;;;869.30;786.38;;;20.00;99.90;;;;;;4990220;28;20204;-89
2022/08/02 05:39:55;;;;;;;870.65;787.60;;;20.10;99.90;;;;;;4996469;28;20200;-89
2022/08/02 05:42:22;;;;;;;887.45;803.85;;;20.10;99.90;;;;;;4994221;28;20201;-90
2022/08/02 05:44:48;;;;;;;885.45;803.70;;;20.20;99.90;;;;;;4991661;28;20200;-88
2022/08/02 05:47:15;;;;;;;889.78;806.22;;;20.50;99.90;;;;;;4988593;28;20212;-88
2022/08/02 05:49:42;;;;;;;909.30;826.10;;;20.70;99.90;;;;;;4989452;28;20231;-89
2022/08/02 05:52:16;;;;;;;911.78;829.30;;;20.90;99.90;;;;;;4997868;28;20193;-89
2022/08/02 05:54:49;;;;;;;912.88;829.17;;;21.10;99.90;;;;;;4990847;28;20644;-84
2022/08/02 05:57:30;;;;;;;933.65;849.63;;;21.20;99.90;;;;;;4995095;28;20251;-83
2022/08/02 06:00:07;;;;;;;943.10;857.88;;;21.40;99.90;;;;;;4989548;28;20627;-84
2022/08/02 06:02:55;;;;;;;946.25;860.50;;;21.50;99.90;;;;;;4990875;28;20220;-84
2022/08/02 06:05:25;;;;;;;940.50;855.08;;;21.60;99.90;;;;;;4989984;28;20205;-85
2022/08/02 06:07:54;;;;;;;956.33;872.30;;;21.80;99.90;;;;;;4998668;28;20662;-85
2022/08/02 06:10:22;;;;;;;974.20;888.10;;;21.90;99.90;;;;;;4996577;28;20232;-84
2022/08/02 06:12:51;;;;;;;951.00;866.20;;;22.00;99.90;;;;;;4995810;28;20668;-84
2022/08/02 06:15:19;;;;;;;975.33;889.65;;;22.10;99.90;;;;;;4991871;28;20205;-86
2022/08/02 06:17:47;;;;;;;967.55;881.95;;;22.20;99.90;;;;;;4990016;28;20232;-85
2022/08/02 06:20:15;;;;;;;969.97;884.45;;;22.30;99.90;;;;;;4996144;28;20553;-85
2022/08/02 06:22:43;;;;;;;978.35;892.17;;;22.40;99.90;;;;;;4990711;28;20208;-85
2022/08/02 06:25:10;;;;;;;1000.42;914.33;;;22.50;99.90;;;;;;4996990;28;20196;-86
2022/08/02 06:27:38;;;;;;;982.08;896.30;;;22.60;99.90;;;;;;4993824;28;20208;-85
2022/08/02 06:30:08;;;;;;;1007.20;920.10;;;22.80;99.90;;;;;;4989976;28;20217;-84
2022/08/02 06:32:35;;;;;;;987.55;901.95;;;22.90;99.90;;;;;;4990523;28;20205;-83
2022/08/02 06:35:02;;;;;;;1003.58;917.17;;;23.00;99.90;;;;;;4986463;28;20204;-83
2022/08/02 06:37:36;;;;;;;1006.25;919.67;;;23.10;99.90;;;;;;5003689;28;20655;-83
2022/08/02 06:40:11;;;;;;;1007.67;920.97;;;23.20;99.90;;;;;;4991189;28;20192;-83
2022/08/02 06:42:48;;;;;;;1023.08;935.72;;;23.30;99.90;;;;;;4984452;28;20719;-84
2022/08/02 06:45:16;;;;;;;1009.70;923.53;;;23.40;99.90;;;;;;4990146;28;20196;-85
2022/08/02 06:47:46;;;;;;;1032.30;944.30;;;23.40;99.90;;;;;;4990118;28;20478;-85
2022/08/02 06:50:13;;;;;;;1022.83;935.72;;;23.50;99.90;;;;;;4995907;28;20486;-85
2022/08/02 06:52:40;;;;;;;1031.77;947.23;;;23.60;99.90;;;;;;4991069;28;20216;-85
2022/08/02 06:55:08;;;;;;;1019.07;931.53;;;23.60;99.90;;;;;;5000266;28;20465;-85
2022/08/02 06:57:35;;;;;;;1028.97;941.13;;;23.70;99.90;;;;;;4983396;28;20468;-84
2022/08/02 07:00:05;;;;;;;1029.80;942.13;;;23.70;99.90;;;;;;4983456;28;20463;-84
2022/08/02 07:02:35;;;;;;;1042.83;954.63;;;23.80;99.90;;;;;;4991307;28;20483;-84
2022/08/02 07:05:02;;;;;;;1035.40;947.53;;;23.90;99.90;;;;;;4991952;28;20460;-83
2022/08/02 07:07:29;;;;;;;1029.43;941.70;;;23.90;99.90;;;;;;4996289;28;20464;-84
2022/08/02 07:09:56;;;;;;;1045.33;956.83;;;24.00;99.90;;;;;;4991534;28;20476;-84
2022/08/02 07:12:22;;;;;;;1050.47;961.93;;;24.10;99.90;;;;;;4989161;28;20490;-85
2022/08/02 07:14:49;;;;;;;1045.20;958.93;;;24.20;99.90;;;;;;4995589;28;20951;-83
2022/08/02 07:17:16;;;;;;;1040.37;953.57;;;24.30;99.90;;;;;;4990408;28;20987;-83
2022/08/02 07:19:44;;;;;;;1062.03;974.63;;;24.40;99.90;;;;;;4983712;28;20466;-85
2022/08/02 07:22:11;;;;;;;1063.03;974.13;;;24.50;99.90;;;;;;4999808;28;20463;-84
2022/08/02 07:24:38;;;;;;;1062.50;973.33;;;24.50;99.90;;;;;;5007924;28;20451;-83
2022/08/02 07:27:06;;;;;;;1060.63;972.43;;;24.60;99.90;;;;;;5002363;28;20522;-84
2022/08/02 07:29:32;;;;;;;1071.40;982.33;;;24.70;99.90;;;;;;4989065;28;20499;-84
2022/08/02 07:31:59;;;;;;;1058.33;969.23;;;24.80;99.90;;;;;;4997813;28;20451;-84
2022/08/02 07:34:26;;;;;;;1069.53;980.53;;;24.80;99.90;;;;;;4990208;28;20968;-85
2022/08/02 07:36:54;;;;;;;1068.90;980.47;;;24.80;99.90;;;;;;4989853;28;20471;-83
2022/08/02 07:39:22;;;;;;;1065.60;977.57;;;24.80;99.90;;;;;;4992059;28;20520;-83
2022/08/02 07:41:51;;;;;;;1074.97;985.60;;;24.80;99.90;;;;;;4988072;28;20460;-84
2022/08/02 07:44:18;;;;;;;1073.73;984.47;;;24.90;99.90;;;;;;4987790;28;20464;-84
2022/08/02 07:46:45;;;;;;;1068.70;979.73;;;24.90;99.90;;;;;;4986322;28;20472;-81
2022/08/02 07:49:17;;;;;;;1067.90;980.77;;;25.00;99.90;;;;;;4987698;28;20478;-80
2022/08/02 07:51:43;;;;;;;1071.47;981.93;;;25.00;99.90;;;;;;4991675;28;20494;-84
2022/08/02 07:54:12;;;;;;;1075.67;986.30;;;25.10;99.90;;;;;;4979109;28;21630;-84
2022/08/02 07:56:38;;;;;;;1080.57;992.17;;;25.10;99.90;;;;;;4982191;28;20932;-84
2022/08/02 07:59:05;;;;;;;1082.23;992.33;;;25.20;99.90;;;;;;4991939;28;20466;-86
2022/08/02 08:01:32;;;;;;;1085.13;994.47;;;25.20;99.90;;;;;;4997875;28;20487;-85
2022/08/02 08:03:58;;;;;;;1077.93;988.73;;;25.30;99.90;;;;;;4994308;28;20460;-84
2022/08/02 08:06:25;;;;;;;1084.03;997.67;;;25.30;99.90;;;;;;4994219;28;20456;-84
2022/08/02 08:08:52;;;;;;;1092.23;999.83;;;25.40;99.90;;;;;;4988458;28;20459;-82
2022/08/02 08:11:20;;;;;;;1095.97;999.90;;;25.40;99.90;;;;;;5006204;28;20960;-85
2022/08/02 08:13:47;;;;;;;1094.97;999.90;;;25.50;99.90;;;;;;4992890;28;20463;-82
2022/08/02 08:16:13;;;;;;;1077.57;993.37;;;25.50;99.90;;;;;;4997013;28;20428;-84
2022/08/02 08:18:40;;;;;;;1095.23;999.90;;;25.50;99.90;;;;;;4989843;28;20460;-81
2022/08/02 08:21:07;;;;;;;1099.13;999.90;;;25.60;99.90;;;;;;4996696;28;20472;-85
2022/08/02 08:23:34;;;;;;;1104.40;999.90;;;25.60;99.90;;;;;;4993630;28;20459;-85
2022/08/02 08:26:01;;;;;;;1093.53;999.90;;;25.70;99.90;;;;;;4993108;28;20525;-90
2022/08/02 08:28:29;;;;;;;1106.67;999.90;;;25.70;99.90;;;;;;4993274;28;20461;-89
2022/08/02 08:30:56;;;;;;;1104.90;999.90;;;25.70;99.90;;;;;;4998097;28;21010;-92
2022/08/02 08:33:23;;;;;;;1100.77;999.90;;;25.80;99.90;;;;;;4994342;28;20488;-86
2022/08/02 08:35:49;;;;;;;1103.77;999.90;;;25.80;99.90;;;;;;4985692;28;20472;-87
2022/08/02 08:38:16;;;;;;;1107.53;999.90;;;25.90;99.90;;;;;;4991580;28;20460;-91
2022/08/02 08:40:43;;;;;;;1106.43;999.90;;;25.90;99.90;;;;;;4992051;28;20464;-87
2022/08/02 08:43:13;;;;;;;1110.53;999.90;;;25.90;99.90;;;;;;4992684;28;20963;-81
2022/08/02 08:45:43;;;;;;;1116.50;999.90;;;26.00;99.70;;;;;;4994139;28;20456;-88
2022/08/02 08:48:12;;;;;;;1113.40;999.90;;;26.00;99.90;;;;;;4982480;28;20445;-86
2022/08/02 08:50:52;;;;;;;1125.07;999.90;;;25.90;99.90;;;;;;4990102;28;20491;-88
2022/08/02 08:53:27;;;;;;;1126.03;999.90;;;26.00;99.90;;;;;;4992619;28;20459;-88
2022/08/02 08:55:55;;;;;;;1126.90;999.90;;;26.00;99.30;;;;;;4998007;28;20474;-88
2022/08/02 08:58:24;;;;;;;1126.13;999.90;;;26.00;99.50;;;;;;4993358;28;20448;-88
2022/08/02 09:00:52;;;;;;;1122.43;999.90;;;26.00;99.20;;;;;;4991218;28;20467;-85
2022/08/02 09:03:19;;;;;;;1124.20;999.90;;;26.10;99.30;;;;;;4989587;28;20456;-85
2022/08/02 09:05:46;;;;;;;1119.43;999.90;;;26.10;99.00;;;;;;4996940;28;20467;-89
2022/08/02 09:08:13;;;;;;;1137.30;999.90;;;26.20;98.80;;;;;;4998450;28;20466;-89
2022/08/02 09:10:41;;;;;;;1124.90;999.90;;;26.20;98.50;;;;;;4996983;28;20476;-89
2022/08/02 09:13:11;;;;;;;1126.27;999.90;;;26.30;98.30;;;;;;4990474;28;20518;-89
2022/08/02 09:15:38;;;;;;;1134.27;999.90;;;26.30;98.30;;;;;;4990461;28;20464;-88
2022/08/02 09:18:08;;;;;;;1127.70;999.90;;;26.30;98.20;;;;;;4986030;28;20467;-91
2022/08/02 09:20:35;;;;;;;1114.47;999.90;;;26.40;98.40;;;;;;4990896;28;20471;-87
2022/08/02 09:23:06;;;;;;;1117.43;999.90;;;26.40;98.20;;;;;;4991125;28;20792;-89
2022/08/02 09:25:33;;;;;;;1123.87;999.90;;;26.40;98.00;;;;;;4990467;28;20475;-89
2022/08/02 09:28:02;;;;;;;1129.87;999.90;;;26.40;98.10;;;;;;4989630;28;20456;-89
2022/08/02 09:30:28;;;;;;;1128.47;999.90;;;26.40;98.00;;;;;;4989377;28;20491;-87
2022/08/02 09:32:55;;;;;;;1129.70;999.90;;;26.40;97.90;;;;;;4988496;28;20464;-89
2022/08/02 09:35:33;;;;;;;1128.67;999.90;;;26.40;97.80;;;;;;4993681;28;20803;-90
2022/08/02 09:38:09;;;;;;;1127.77;999.90;;;26.40;98.10;;;;;;4988362;28;20483;-83
2022/08/02 09:40:36;;;;;;;1130.57;999.90;;;26.30;97.80;;;;;;4987851;28;20470;-87
2022/08/02 09:43:03;;;;;;;1124.10;999.90;;;26.30;97.70;;;;;;4986788;28;20547;-85
2022/08/02 09:45:33;;;;;;;1125.13;999.90;;;26.30;97.90;;;;;;4989829;28;20460;-88
2022/08/02 09:48:00;;;;;;;1134.70;999.90;;;26.30;97.80;;;;;;4993296;28;20547;-87
2022/08/02 09:50:26;;;;;;;1129.33;999.90;;;26.30;97.90;;;;;;4997645;28;20501;-85
2022/08/02 09:52:56;;;;;;;1134.77;999.90;;;26.30;97.90;;;;;;4994646;28;20835;-89
2022/08/02 09:55:24;;;;;;;1133.73;999.90;;;26.30;98.10;;;;;;5002415;28;20550;-87
2022/08/02 09:57:51;;;;;;;1125.47;999.90;;;26.30;98.20;;;;;;4987565;28;20468;-90
2022/08/02 10:00:18;;;;;;;1124.10;999.90;;;26.20;98.10;;;;;;4992478;28;20466;-88
2022/08/02 10:03:07;;;;;;;1112.70;999.90;;;26.30;98.10;;;;;;4987196;28;20488;-85
2022/08/02 10:05:47;;;;;;;1121.43;999.90;;;26.20;98.00;;;;;;4989142;28;20448;-89
2022/08/02 10:08:16;;;;;;;1119.57;999.90;;;26.20;98.20;;;;;;4991268;28;20951;-89
2022/08/02 10:10:42;;;;;;;1110.80;999.90;;;26.20;98.20;;;;;;4991608;28;20578;-85
2022/08/02 10:13:10;;;;;;;1135.07;999.90;;;26.20;98.40;;;;;;4993208;28;20445;-85
2022/08/02 10:15:37;;;;;;;1127.80;999.90;;;26.20;98.50;;;;;;4991875;28;20451;-86
2022/08/02 10:18:04;;;;;;;1126.93;999.90;;;26.10;98.50;;;;;;4989318;28;20872;-86
2022/08/02 10:20:37;;;;;;;1113.53;999.90;;;26.10;98.50;;;;;;5002808;28;20456;-83
2022/08/02 10:23:05;;;;;;;1109.97;999.90;;;26.10;98.50;;;;;;4988807;28;20879;-84
2022/08/02 10:25:36;;;;;;;1109.90;999.90;;;26.00;98.60;;;;;;4995303;28;20967;-88
2022/08/02 10:28:03;;;;;;;1119.30;999.90;;;26.00;98.90;;;;;;4981789;28;20471;-89
2022/08/02 10:30:31;;;;;;;1105.73;999.90;;;26.00;98.90;;;;;;4991453;28;20483;-87
2022/08/02 10:33:01;;;;;;;1110.07;999.90;;;26.00;98.90;;;;;;4992759;28;20440;-87
2022/08/02 10:35:29;;;;;;;1101.63;999.90;;;25.90;99.00;;;;;;4990159;28;20466;-91
2022/08/02 10:38:00;;;;;;;1112.17;999.90;;;26.00;99.00;;;;;;4983716;28;20498;-87
2022/08/02 10:43:53;;;;;;;1103.60;999.90;;;26.00;98.90;;;;;;5146177;27;20282;-89
2022/08/02 10:46:30;;;;;;;1100.87;999.90;;;26.00;98.80;;;;;;5071129;28;21797;-83
2022/08/02 10:49:08;;;;;;;1097.70;999.90;;;26.00;98.90;;;;;;5113249;27;20465;-81
2022/08/02 10:52:08;;;;;;;1094.30;999.90;;;26.00;98.90;;;;;;5122028;28;20447;-86
2022/08/02 10:54:37;;;;;;;1101.37;999.90;;;25.90;99.00;;;;;;5108158;28;20435;-85
2022/08/02 10:57:14;;;;;;;1103.00;999.90;;;25.90;99.10;;;;;;5120996;28;20438;-86
2022/08/02 10:59:42;;;;;;;1099.90;999.90;;;25.90;99.10;;;;;;5123314;28;20449;-86
2022/08/02 11:02:10;;;;;;;1122.20;999.90;;;25.90;99.10;;;;;;5117958;28;20482;-87
2022/08/02 11:05:01;;;;;;;1107.27;999.90;;;25.90;99.20;;;;;;5114846;28;20451;-88
2022/08/02 11:07:33;;;;;;;1115.33;999.90;;;25.90;99.20;;;;;;5119898;28;20450;-86
2022/08/02 11:10:19;;;;;;;1108.40;999.90;;;25.90;99.00;;;;;;5124223;28;20435;-85
2022/08/02 11:13:00;;;;;;;1099.77;999.90;;;25.90;99.00;;;;;;5116233;28;20443;-85
2022/08/02 11:15:28;;;;;;;1100.67;999.90;;;25.90;99.10;;;;;;5127384;28;20422;-85
2022/08/02 11:17:57;;;;;;;1112.40;999.90;;;25.90;99.10;;;;;;5116833;28;20450;-86
2022/08/02 11:20:25;;;;;;;1096.63;999.90;;;25.90;99.00;;;;;;5124084;28;20936;-86
2022/08/02 11:22:53;;;;;;;1111.80;999.90;;;25.90;99.00;;;;;;5113024;27;20866;-85
2022/08/02 11:25:33;;;;;;;1098.70;999.90;;;25.90;99.00;;;;;;5118837;28;20828;-85
2022/08/02 11:28:08;;;;;;;1099.83;999.90;;;25.90;99.10;;;;;;5119349;28;20453;-86
2022/08/02 11:30:37;;;;;;;1106.23;999.90;;;26.00;99.10;;;;;;5124396;28;20483;-86
2022/08/02 11:33:04;;;;;;;1096.13;999.90;;;26.00;99.10;;;;;;5124086;27;20462;-84
2022/08/02 11:35:35;;;;;;;1113.50;999.90;;;26.00;99.00;;;;;;5121857;28;20463;-85
2022/08/02 11:38:23;;;;;;;1119.00;999.90;;;26.00;99.10;;;;;;5116881;28;20841;-85
2022/08/02 11:40:50;;;;;;;1101.87;999.90;;;26.00;99.00;;;;;;5119542;28;20465;-88
2022/08/02 11:43:21;;;;;;;1103.73;999.90;;;26.00;98.90;;;;;;5120746;28;20489;-90
2022/08/02 11:45:51;;;;;;;1114.17;999.90;;;26.00;98.90;;;;;;5120660;28;20944;-84
2022/08/02 11:48:32;;;;;;;1110.50;999.90;;;26.10;98.90;;;;;;5113912;28;20843;-82
2022/08/02 11:51:07;;;;;;;1101.53;999.90;;;26.10;98.90;;;;;;5118260;28;20454;-83
2022/08/02 11:53:45;;;;;;;1113.67;999.90;;;26.10;98.90;;;;;;5111033;28;20466;-84
2022/08/02 11:56:12;;;;;;;1110.13;999.90;;;26.10;98.90;;;;;;5105112;28;20458;-87
2022/08/02 11:58:39;;;;;;;1120.43;999.90;;;26.10;98.80;;;;;;5107084;28;20833;-83
2022/08/02 12:01:07;;;;;;;1097.83;999.90;;;26.10;98.90;;;;;;5103876;28;20477;-84
2022/08/02 12:03:38;;;;;;;1100.53;999.90;;;26.10;98.70;;;;;;5106571;28;20836;-86
2022/08/02 12:06:05;;;;;;;1109.77;999.90;;;26.10;98.60;;;;;;5102830;28;20467;-86
2022/08/02 12:08:32;;;;;;;1100.70;999.90;;;26.10;98.50;;;;;;5108378;28;20458;-83
2022/08/02 12:11:02;;;;;;;1103.73;999.90;;;26.10;98.50;;;;;;5106906;28;20821;-87
2022/08/02 12:13:41;;;;;;;1110.87;999.90;;;26.10;98.60;;;;;;5101035;28;20459;-83
2022/08/02 12:21:41;;;;;;;1116.57;999.90;;;26.10;98.70;;;;;;5103605;28;20985;-85
2022/08/02 12:24:08;;;;;;;1113.90;999.90;;;26.10;98.60;;;;;;5106811;28;20447;-85
2022/08/02 12:26:42;;;;;;;1106.07;999.90;;;26.10;98.60;;;;;;5107890;28;20459;-83
2022/08/02 12:29:09;;;;;;;1117.43;999.90;;;26.10;98.50;;;;;;5099242;28;20459;-85